sensor_id;sensor_type;location;lat;lon;timestamp;P1;durP1;ratioP1;P2;durP2;ratioP2
36195;SDS011;22237;51.974;4.616;2022-07-29T15:33:32;3.00;;;1.40;;
36195;SDS011;22237;51.974;4.616;2022-07-29T15:35:57;3.37;;;1.13;;
36195;SDS011;22237;51.974;4.616;2022-07-29T15:38:23;1.67;;;1.00;;
36195;SDS011;22237;51.974;4.616;2022-07-29T15:40:48;2.20;;;1.00;;
36195;SDS011;22237;51.974;4.616;2022-07-29T15:43:13;4.60;;;1.42;;
36195;SDS011;22237;51.974;4.616;2022-07-29T15:45:39;1.70;;;1.13;;
36195;SDS011;22237;51.974;4.616;2022-07-29T15:48:05;4.28;;;1.20;;
36195;SDS011;22237;51.974;4.616;2022-07-29T15:50:31;1.02;;;0.88;;
36195;SDS011;22237;51.974;4.616;2022-07-29T15:52:56;5.03;;;1.00;;
36195;SDS011;22237;51.974;4.616;2022-07-29T15:55:21;2.77;;;1.23;;
36195;SDS011;22237;51.974;4.616;2022-07-29T15:57:48;1.05;;;0.90;;
36195;SDS011;22237;51.974;4.616;2022-07-29T16:00:14;4.20;;;1.17;;
36195;SDS011;22237;51.974;4.616;2022-07-29T16:02:41;3.00;;;1.30;;
36195;SDS011;22237;51.974;4.616;2022-07-29T16:05:07;3.83;;;1.42;;
36195;SDS011;22237;51.974;4.616;2022-07-29T16:07:32;4.70;;;1.20;;
36195;SDS011;22237;51.974;4.616;2022-07-29T16:09:57;4.30;;;1.00;;
36195;SDS011;22237;51.974;4.616;2022-07-29T16:12:23;6.32;;;0.90;;
36195;SDS011;22237;51.974;4.616;2022-07-29T16:14:48;3.15;;;0.95;;
36195;SDS011;22237;51.974;4.616;2022-07-29T16:17:14;1.50;;;1.08;;
36195;SDS011;22237;51.974;4.616;2022-07-29T16:19:40;2.93;;;0.80;;
36195;SDS011;22237;51.974;4.616;2022-07-29T16:22:05;1.23;;;1.10;;
36195;SDS011;22237;51.974;4.616;2022-07-29T16:24:30;2.90;;;1.23;;
36195;SDS011;22237;51.974;4.616;2022-07-29T16:26:57;4.50;;;1.55;;
36195;SDS011;22237;51.974;4.616;2022-07-29T16:29:22;2.17;;;1.08;;
36195;SDS011;22237;51.974;4.616;2022-07-29T16:31:47;1.90;;;0.80;;
36195;SDS011;22237;51.974;4.616;2022-07-29T16:34:12;6.43;;;1.30;;
36195;SDS011;22237;51.974;4.616;2022-07-29T16:36:38;8.38;;;1.17;;
36195;SDS011;22237;51.974;4.616;2022-07-29T16:39:03;2.13;;;1.00;;
36195;SDS011;22237;51.974;4.616;2022-07-29T16:41:29;5.13;;;1.05;;
36195;SDS011;22237;51.974;4.616;2022-07-29T16:43:54;6.47;;;1.27;;
36195;SDS011;22237;51.974;4.616;2022-07-29T16:46:20;1.80;;;1.03;;
36195;SDS011;22237;51.974;4.616;2022-07-29T16:48:46;2.35;;;1.17;;
36195;SDS011;22237;51.974;4.616;2022-07-29T16:51:11;3.45;;;1.10;;
36195;SDS011;22237;51.974;4.616;2022-07-29T16:53:36;4.43;;;1.07;;
36195;SDS011;22237;51.974;4.616;2022-07-29T16:56:02;1.20;;;1.03;;
36195;SDS011;22237;51.974;4.616;2022-07-29T16:58:27;2.03;;;1.30;;
36195;SDS011;22237;51.974;4.616;2022-07-29T17:00:53;6.22;;;1.10;;
36195;SDS011;22237;51.974;4.616;2022-07-29T17:03:18;3.92;;;1.08;;
36195;SDS011;22237;51.974;4.616;2022-07-29T17:05:43;2.37;;;1.20;;
36195;SDS011;22237;51.974;4.616;2022-07-29T17:08:09;2.20;;;1.00;;
36195;SDS011;22237;51.974;4.616;2022-07-29T17:10:34;2.13;;;1.20;;
36195;SDS011;22237;51.974;4.616;2022-07-29T17:12:59;3.63;;;1.33;;
36195;SDS011;22237;51.974;4.616;2022-07-29T17:15:24;2.17;;;1.00;;
36195;SDS011;22237;51.974;4.616;2022-07-29T17:17:49;5.43;;;1.30;;
36195;SDS011;22237;51.974;4.616;2022-07-29T17:20:15;2.27;;;0.80;;
36195;SDS011;22237;51.974;4.616;2022-07-29T17:22:40;4.07;;;1.65;;
36195;SDS011;22237;51.974;4.616;2022-07-29T17:25:07;1.23;;;0.95;;
36195;SDS011;22237;51.974;4.616;2022-07-29T17:27:33;3.58;;;0.80;;
36195;SDS011;22237;51.974;4.616;2022-07-29T17:29:58;4.13;;;1.15;;
36195;SDS011;22237;51.974;4.616;2022-07-29T17:32:24;6.20;;;1.50;;
36195;SDS011;22237;51.974;4.616;2022-07-29T17:34:49;3.67;;;1.20;;
36195;SDS011;22237;51.974;4.616;2022-07-29T17:37:14;4.30;;;1.03;;
36195;SDS011;22237;51.974;4.616;2022-07-29T17:39:42;3.50;;;1.13;;
36195;SDS011;22237;51.974;4.616;2022-07-29T17:42:11;5.75;;;1.20;;
36195;SDS011;22237;51.974;4.616;2022-07-29T17:44:37;2.65;;;1.23;;
36195;SDS011;22237;51.974;4.616;2022-07-29T17:47:03;5.25;;;0.93;;
36195;SDS011;22237;51.974;4.616;2022-07-29T17:49:28;4.45;;;1.00;;
36195;SDS011;22237;51.974;4.616;2022-07-29T17:51:56;1.40;;;0.90;;
36195;SDS011;22237;51.974;4.616;2022-07-29T17:54:23;3.00;;;1.38;;
36195;SDS011;22237;51.974;4.616;2022-07-29T17:56:51;3.40;;;1.02;;
36195;SDS011;22237;51.974;4.616;2022-07-29T17:59:17;11.33;;;1.50;;
36195;SDS011;22237;51.974;4.616;2022-07-29T18:01:42;7.93;;;1.60;;
36195;SDS011;22237;51.974;4.616;2022-07-29T18:04:07;6.50;;;1.40;;
36195;SDS011;22237;51.974;4.616;2022-07-29T18:06:33;7.50;;;1.40;;
36195;SDS011;22237;51.974;4.616;2022-07-29T18:08:58;7.03;;;1.10;;
36195;SDS011;22237;51.974;4.616;2022-07-29T18:11:23;5.73;;;1.47;;
36195;SDS011;22237;51.974;4.616;2022-07-29T18:13:49;5.68;;;1.30;;
36195;SDS011;22237;51.974;4.616;2022-07-29T18:16:14;4.00;;;1.00;;
36195;SDS011;22237;51.974;4.616;2022-07-29T18:18:40;7.27;;;1.40;;
36195;SDS011;22237;51.974;4.616;2022-07-29T18:21:07;3.30;;;1.17;;
36195;SDS011;22237;51.974;4.616;2022-07-29T18:23:32;4.57;;;1.63;;
36195;SDS011;22237;51.974;4.616;2022-07-29T18:25:57;8.18;;;1.40;;
36195;SDS011;22237;51.974;4.616;2022-07-29T18:28:23;5.57;;;1.60;;
36195;SDS011;22237;51.974;4.616;2022-07-29T18:30:48;3.20;;;1.35;;
36195;SDS011;22237;51.974;4.616;2022-07-29T18:33:13;8.45;;;1.92;;
36195;SDS011;22237;51.974;4.616;2022-07-29T18:35:47;2.60;;;1.23;;
36195;SDS011;22237;51.974;4.616;2022-07-29T18:38:12;1.30;;;1.20;;
36195;SDS011;22237;51.974;4.616;2022-07-29T18:40:38;3.30;;;1.75;;
36195;SDS011;22237;51.974;4.616;2022-07-29T18:43:09;6.00;;;1.30;;
36195;SDS011;22237;51.974;4.616;2022-07-29T18:45:34;4.60;;;1.10;;
36195;SDS011;22237;51.974;4.616;2022-07-29T18:47:59;4.97;;;1.30;;
36195;SDS011;22237;51.974;4.616;2022-07-29T18:50:25;3.42;;;1.30;;
36195;SDS011;22237;51.974;4.616;2022-07-29T18:52:50;2.97;;;1.63;;
36195;SDS011;22237;51.974;4.616;2022-07-29T18:55:16;8.40;;;1.63;;
36195;SDS011;22237;51.974;4.616;2022-07-29T18:57:41;7.90;;;1.52;;
36195;SDS011;22237;51.974;4.616;2022-07-29T19:00:09;6.57;;;1.80;;
36195;SDS011;22237;51.974;4.616;2022-07-29T19:02:35;4.82;;;1.40;;
36195;SDS011;22237;51.974;4.616;2022-07-29T19:05:05;6.32;;;1.52;;
36195;SDS011;22237;51.974;4.616;2022-07-29T19:07:31;6.15;;;1.80;;
36195;SDS011;22237;51.974;4.616;2022-07-29T19:09:56;6.07;;;1.60;;
36195;SDS011;22237;51.974;4.616;2022-07-29T19:12:22;6.60;;;1.97;;
36195;SDS011;22237;51.974;4.616;2022-07-29T19:14:48;4.32;;;1.48;;
36195;SDS011;22237;51.974;4.616;2022-07-29T19:17:14;1.90;;;1.57;;
36195;SDS011;22237;51.974;4.616;2022-07-29T19:19:42;4.63;;;1.42;;
36195;SDS011;22237;51.974;4.616;2022-07-29T19:22:07;9.40;;;1.65;;
36195;SDS011;22237;51.974;4.616;2022-07-29T19:24:32;4.47;;;1.50;;
36195;SDS011;22237;51.974;4.616;2022-07-29T19:26:57;4.47;;;1.60;;
36195;SDS011;22237;51.974;4.616;2022-07-29T19:29:23;2.67;;;1.20;;
36195;SDS011;22237;51.974;4.616;2022-07-29T19:31:49;5.38;;;2.00;;
36195;SDS011;22237;51.974;4.616;2022-07-29T19:34:14;4.93;;;1.45;;
36195;SDS011;22237;51.974;4.616;2022-07-29T19:36:39;5.63;;;1.53;;
36195;SDS011;22237;51.974;4.616;2022-07-29T19:39:05;4.65;;;1.60;;
36195;SDS011;22237;51.974;4.616;2022-07-29T19:41:30;7.28;;;2.13;;
36195;SDS011;22237;51.974;4.616;2022-07-29T19:43:56;8.47;;;1.43;;
36195;SDS011;22237;51.974;4.616;2022-07-29T19:46:23;3.75;;;1.77;;
36195;SDS011;22237;51.974;4.616;2022-07-29T19:48:51;2.47;;;1.65;;
36195;SDS011;22237;51.974;4.616;2022-07-29T19:51:17;6.47;;;2.78;;
36195;SDS011;22237;51.974;4.616;2022-07-29T19:53:42;6.83;;;2.97;;
36195;SDS011;22237;51.974;4.616;2022-07-29T19:56:07;7.40;;;3.20;;
36195;SDS011;22237;51.974;4.616;2022-07-29T19:58:33;9.93;;;2.80;;
36195;SDS011;22237;51.974;4.616;2022-07-29T20:00:59;8.10;;;3.47;;
36195;SDS011;22237;51.974;4.616;2022-07-29T20:03:24;14.45;;;2.90;;
36195;SDS011;22237;51.974;4.616;2022-07-29T20:05:50;11.57;;;2.10;;
36195;SDS011;22237;51.974;4.616;2022-07-29T20:08:18;9.30;;;1.98;;
36195;SDS011;22237;51.974;4.616;2022-07-29T20:10:47;4.80;;;1.83;;
36195;SDS011;22237;51.974;4.616;2022-07-29T20:13:12;9.00;;;2.57;;
36195;SDS011;22237;51.974;4.616;2022-07-29T20:15:37;5.38;;;2.17;;
36195;SDS011;22237;51.974;4.616;2022-07-29T20:18:02;3.90;;;1.63;;
36195;SDS011;22237;51.974;4.616;2022-07-29T20:20:27;6.70;;;1.93;;
36195;SDS011;22237;51.974;4.616;2022-07-29T20:22:56;9.25;;;2.50;;
36195;SDS011;22237;51.974;4.616;2022-07-29T20:25:22;6.72;;;1.75;;
36195;SDS011;22237;51.974;4.616;2022-07-29T20:27:47;4.20;;;2.08;;
36195;SDS011;22237;51.974;4.616;2022-07-29T20:30:16;12.93;;;1.80;;
36195;SDS011;22237;51.974;4.616;2022-07-29T20:32:41;9.73;;;2.22;;
36195;SDS011;22237;51.974;4.616;2022-07-29T20:35:06;7.00;;;2.00;;
36195;SDS011;22237;51.974;4.616;2022-07-29T20:37:32;3.78;;;2.10;;
36195;SDS011;22237;51.974;4.616;2022-07-29T20:39:57;8.07;;;2.00;;
36195;SDS011;22237;51.974;4.616;2022-07-29T20:42:22;3.40;;;1.90;;
36195;SDS011;22237;51.974;4.616;2022-07-29T20:44:48;10.73;;;3.92;;
36195;SDS011;22237;51.974;4.616;2022-07-29T20:47:15;10.25;;;2.17;;
36195;SDS011;22237;51.974;4.616;2022-07-29T20:49:40;2.00;;;1.67;;
36195;SDS011;22237;51.974;4.616;2022-07-29T20:52:05;7.13;;;1.90;;
36195;SDS011;22237;51.974;4.616;2022-07-29T20:54:33;7.55;;;2.42;;
36195;SDS011;22237;51.974;4.616;2022-07-29T20:56:58;3.53;;;1.83;;
36195;SDS011;22237;51.974;4.616;2022-07-29T20:59:24;8.30;;;1.90;;
36195;SDS011;22237;51.974;4.616;2022-07-29T21:01:49;6.33;;;1.80;;
36195;SDS011;22237;51.974;4.616;2022-07-29T21:04:14;3.63;;;2.10;;
36195;SDS011;22237;51.974;4.616;2022-07-29T21:06:40;6.28;;;2.00;;
36195;SDS011;22237;51.974;4.616;2022-07-29T21:09:05;6.13;;;1.77;;
36195;SDS011;22237;51.974;4.616;2022-07-29T21:11:30;3.72;;;2.00;;
36195;SDS011;22237;51.974;4.616;2022-07-29T21:13:56;7.73;;;2.00;;
36195;SDS011;22237;51.974;4.616;2022-07-29T21:16:21;6.28;;;2.63;;
36195;SDS011;22237;51.974;4.616;2022-07-29T21:18:49;13.25;;;5.15;;
36195;SDS011;22237;51.974;4.616;2022-07-29T21:21:17;10.70;;;2.35;;
36195;SDS011;22237;51.974;4.616;2022-07-29T21:23:42;8.13;;;2.27;;
36195;SDS011;22237;51.974;4.616;2022-07-29T21:26:07;4.28;;;1.85;;
36195;SDS011;22237;51.974;4.616;2022-07-29T21:28:33;8.02;;;2.85;;
36195;SDS011;22237;51.974;4.616;2022-07-29T21:31:04;11.95;;;2.30;;
36195;SDS011;22237;51.974;4.616;2022-07-29T21:33:30;11.65;;;2.35;;
36195;SDS011;22237;51.974;4.616;2022-07-29T21:35:55;4.68;;;2.08;;
36195;SDS011;22237;51.974;4.616;2022-07-29T21:38:21;6.38;;;2.25;;
36195;SDS011;22237;51.974;4.616;2022-07-29T21:40:46;4.87;;;2.13;;
36195;SDS011;22237;51.974;4.616;2022-07-29T21:43:12;5.30;;;2.08;;
36195;SDS011;22237;51.974;4.616;2022-07-29T21:45:38;5.15;;;1.80;;
36195;SDS011;22237;51.974;4.616;2022-07-29T21:48:03;5.45;;;2.30;;
36195;SDS011;22237;51.974;4.616;2022-07-29T21:50:29;4.70;;;2.30;;
36195;SDS011;22237;51.974;4.616;2022-07-29T21:52:54;3.90;;;2.00;;
36195;SDS011;22237;51.974;4.616;2022-07-29T21:55:19;4.40;;;2.07;;
36195;SDS011;22237;51.974;4.616;2022-07-29T21:57:44;3.20;;;1.80;;
36195;SDS011;22237;51.974;4.616;2022-07-29T22:00:10;4.70;;;2.10;;
36195;SDS011;22237;51.974;4.616;2022-07-29T22:02:39;5.68;;;2.15;;
36195;SDS011;22237;51.974;4.616;2022-07-29T22:05:04;4.13;;;1.90;;
36195;SDS011;22237;51.974;4.616;2022-07-29T22:07:30;5.05;;;2.10;;
36195;SDS011;22237;51.974;4.616;2022-07-29T22:09:55;4.27;;;2.17;;
36195;SDS011;22237;51.974;4.616;2022-07-29T22:12:20;7.83;;;2.17;;
36195;SDS011;22237;51.974;4.616;2022-07-29T22:14:45;8.00;;;2.13;;
36195;SDS011;22237;51.974;4.616;2022-07-29T22:17:10;10.35;;;2.35;;
36195;SDS011;22237;51.974;4.616;2022-07-29T22:19:36;3.93;;;2.30;;
36195;SDS011;22237;51.974;4.616;2022-07-29T22:22:01;8.25;;;2.30;;
36195;SDS011;22237;51.974;4.616;2022-07-29T22:24:26;3.70;;;2.10;;
36195;SDS011;22237;51.974;4.616;2022-07-29T22:26:51;8.10;;;2.27;;
36195;SDS011;22237;51.974;4.616;2022-07-29T22:29:16;6.83;;;2.50;;
36195;SDS011;22237;51.974;4.616;2022-07-29T22:31:42;4.32;;;2.42;;
36195;SDS011;22237;51.974;4.616;2022-07-29T22:34:08;6.63;;;2.17;;
36195;SDS011;22237;51.974;4.616;2022-07-29T22:36:36;7.78;;;2.47;;
36195;SDS011;22237;51.974;4.616;2022-07-29T22:39:01;4.32;;;2.33;;
36195;SDS011;22237;51.974;4.616;2022-07-29T22:41:28;8.73;;;2.60;;
36195;SDS011;22237;51.974;4.616;2022-07-29T22:43:53;3.97;;;2.08;;
36195;SDS011;22237;51.974;4.616;2022-07-29T22:46:18;7.97;;;1.77;;
36195;SDS011;22237;51.974;4.616;2022-07-29T22:48:43;6.83;;;2.40;;
36195;SDS011;22237;51.974;4.616;2022-07-29T22:51:08;5.13;;;2.10;;
36195;SDS011;22237;51.974;4.616;2022-07-29T22:53:34;4.90;;;2.40;;
36195;SDS011;22237;51.974;4.616;2022-07-29T22:55:59;5.47;;;2.00;;
36195;SDS011;22237;51.974;4.616;2022-07-29T22:58:24;7.43;;;2.03;;
36195;SDS011;22237;51.974;4.616;2022-07-29T23:00:49;3.47;;;1.77;;
36195;SDS011;22237;51.974;4.616;2022-07-29T23:03:14;5.55;;;2.10;;
36195;SDS011;22237;51.974;4.616;2022-07-29T23:05:40;4.03;;;2.40;;
36195;SDS011;22237;51.974;4.616;2022-07-29T23:08:05;7.70;;;2.50;;
36195;SDS011;22237;51.974;4.616;2022-07-29T23:10:30;7.53;;;2.37;;
36195;SDS011;22237;51.974;4.616;2022-07-29T23:12:55;3.83;;;2.00;;
36195;SDS011;22237;51.974;4.616;2022-07-29T23:15:21;5.88;;;1.92;;
36195;SDS011;22237;51.974;4.616;2022-07-29T23:17:46;7.10;;;1.90;;
36195;SDS011;22237;51.974;4.616;2022-07-29T23:20:11;6.47;;;2.30;;
36195;SDS011;22237;51.974;4.616;2022-07-29T23:22:37;3.67;;;2.13;;
36195;SDS011;22237;51.974;4.616;2022-07-29T23:25:03;6.97;;;2.10;;
36195;SDS011;22237;51.974;4.616;2022-07-29T23:27:28;5.88;;;2.22;;
36195;SDS011;22237;51.974;4.616;2022-07-29T23:29:54;5.38;;;2.15;;
36195;SDS011;22237;51.974;4.616;2022-07-29T23:32:19;7.30;;;2.13;;
36195;SDS011;22237;51.974;4.616;2022-07-29T23:34:44;5.60;;;1.97;;
36195;SDS011;22237;51.974;4.616;2022-07-29T23:37:09;4.60;;;2.50;;
36195;SDS011;22237;51.974;4.616;2022-07-29T23:39:34;6.03;;;2.13;;
36195;SDS011;22237;51.974;4.616;2022-07-29T23:42:00;2.87;;;1.93;;
36195;SDS011;22237;51.974;4.616;2022-07-29T23:44:26;7.50;;;2.08;;
36195;SDS011;22237;51.974;4.616;2022-07-29T23:46:51;7.80;;;2.13;;
36195;SDS011;22237;51.974;4.616;2022-07-29T23:49:16;6.47;;;2.30;;
36195;SDS011;22237;51.974;4.616;2022-07-29T23:51:41;6.00;;;2.33;;
36195;SDS011;22237;51.974;4.616;2022-07-29T23:54:06;2.63;;;1.60;;
36195;SDS011;22237;51.974;4.616;2022-07-29T23:56:32;5.00;;;2.30;;
36195;SDS011;22237;51.974;4.616;2022-07-29T23:58:57;5.05;;;1.95;;
